Enontekio

Airport
ICAO code: 
EFET
Summary
ICAO Region: 
EUR
Territory: 
Location: 
Enontekio, Finland,
Elevation: 
1005 ft
Coordinates: 
Aerial View: 
68° 21' 45.368" N, 23° 25' 27.477" E
Metar
Observation
EFET 090020Z AUTO 16005KT 120V180 9999 -SHSN OVC007 M15/M17 Q1017
Station
Enontekio
Date/Time
2021-12-09 00:20:00
Wind direction
160°
Wind speed
05 kts
Lowest cloud amount
overcast
Temperature
-15°C
Dew point
-17°C
Humidity
84%
QNH
1017 hPa
Weather condition
light showers snow

Description

International airport serving the Lapland communities in northern Finland.

Climatology

Borderline Subpolar Oceanic/Continental subarctic climate (because of winter temperatures) (Köppen climate classification Cfc/Dfc) - uniform precipitation distribution, temperatures are moderated by the proximity of the ocean and warm currents - cool summers and comparatively mild winters. Heavy snowfalls in winter.

Runways

Designator Length Width Surface Rops
3/21 2001 45 ASP Yes/Yes
Airport map: 
Aerial View: 

SKYbrary Partners:

Safety knowledge contributed by: